createdAt,value
2023-05-19T00:00:02.068Z,1009.906
2023-05-19T00:00:32.281Z,1009.915
2023-05-19T00:01:02.013Z,1009.918
2023-05-19T00:01:32.025Z,1009.922
2023-05-19T00:02:02.031Z,1009.917
2023-05-19T00:02:32.087Z,1009.916
2023-05-19T00:03:02.124Z,1009.921
2023-05-19T00:03:32.053Z,1009.924
2023-05-19T00:04:02.004Z,1009.925
2023-05-19T00:04:31.996Z,1009.927
2023-05-19T00:05:02.008Z,1009.939
2023-05-19T00:05:32.018Z,1009.943
2023-05-19T00:06:02.029Z,1009.963
2023-05-19T00:06:32.056Z,1009.978
2023-05-19T00:07:01.996Z,1010.001
2023-05-19T00:07:31.998Z,1010.02
2023-05-19T00:08:01.993Z,1010.032
2023-05-19T00:08:32.002Z,1010.042
2023-05-19T00:09:02.001Z,1010.053
2023-05-19T00:09:32.000Z,1010.054
2023-05-19T00:10:02.002Z,1010.06
2023-05-19T00:10:32.234Z,1010.064
2023-05-19T00:11:01.998Z,1010.073
2023-05-19T00:11:31.997Z,1010.07
2023-05-19T00:12:02.007Z,1010.064
2023-05-19T00:12:32.002Z,1010.054
2023-05-19T00:13:01.998Z,1010.046
2023-05-19T00:13:32.007Z,1010.043
2023-05-19T00:14:02.006Z,1010.034
2023-05-19T00:14:31.994Z,1010.036
2023-05-19T00:15:02.003Z,1010.037
2023-05-19T00:15:32.007Z,1010.03
2023-05-19T00:16:02.047Z,1010.019
2023-05-19T00:16:32.044Z,1010.012
2023-05-19T00:17:01.995Z,1010.002
2023-05-19T00:17:32.056Z,1009.993
2023-05-19T00:18:02.067Z,1009.983
2023-05-19T00:18:32.006Z,1009.972
2023-05-19T00:19:02.065Z,1009.972
2023-05-19T00:19:32.001Z,1009.98
2023-05-19T00:20:02.009Z,1009.991
2023-05-19T00:20:32.211Z,1010
2023-05-19T00:21:02.002Z,1010.003
2023-05-19T00:21:32.006Z,1010.002
2023-05-19T00:22:02.005Z,1010.009
2023-05-19T00:22:32.001Z,1010.023
2023-05-19T00:23:02.021Z,1010.034
2023-05-19T00:23:32.002Z,1010.039
2023-05-19T00:24:01.995Z,1010.05
2023-05-19T00:24:32.005Z,1010.059
2023-05-19T00:25:02.003Z,1010.077
2023-05-19T00:25:31.996Z,1010.073
2023-05-19T00:26:02.008Z,1010.083
2023-05-19T00:26:32.003Z,1010.082
2023-05-19T00:27:02.001Z,1010.084
2023-05-19T00:27:32.004Z,1010.087
2023-05-19T00:28:01.998Z,1010.085
2023-05-19T00:28:32.006Z,1010.089
2023-05-19T00:29:02.006Z,1010.091
2023-05-19T00:29:31.999Z,1010.099
2023-05-19T00:30:02.098Z,1010.092
2023-05-19T00:30:32.207Z,1010.097
2023-05-19T00:31:02.095Z,1010.093
2023-05-19T00:31:32.044Z,1010.091
2023-05-19T00:32:02.059Z,1010.093
2023-05-19T00:32:32.027Z,1010.087
2023-05-19T00:33:02.110Z,1010.085
2023-05-19T00:33:32.014Z,1010.085
2023-05-19T00:34:02.066Z,1010.088
2023-05-19T00:34:32.004Z,1010.088
2023-05-19T00:35:02.027Z,1010.095
2023-05-19T00:35:32.000Z,1010.101
2023-05-19T00:36:02.162Z,1010.112
2023-05-19T00:36:32.006Z,1010.114
2023-05-19T00:37:02.025Z,1010.125
2023-05-19T00:37:32.003Z,1010.134
2023-05-19T00:38:02.086Z,1010.133
2023-05-19T00:38:32.006Z,1010.129
2023-05-19T00:39:02.054Z,1010.125
2023-05-19T00:39:32.004Z,1010.12
2023-05-19T00:40:02.124Z,1010.123
2023-05-19T00:40:32.214Z,1010.117
2023-05-19T00:41:02.025Z,1010.127
2023-05-19T00:41:32.006Z,1010.138
2023-05-19T00:42:02.043Z,1010.151
2023-05-19T00:42:32.017Z,1010.155
2023-05-19T00:43:02.066Z,1010.159
2023-05-19T00:43:32.004Z,1010.148
2023-05-19T00:44:02.028Z,1010.151
2023-05-19T00:44:32.007Z,1010.152
2023-05-19T00:45:02.022Z,1010.15
2023-05-19T00:45:32.006Z,1010.159
2023-05-19T00:46:02.020Z,1010.16
2023-05-19T00:46:32.069Z,1010.161
2023-05-19T00:47:02.257Z,1010.163
2023-05-19T00:47:32.094Z,1010.168
2023-05-19T00:48:02.131Z,1010.172
2023-05-19T00:48:32.013Z,1010.176
2023-05-19T00:49:02.018Z,1010.186
2023-05-19T00:49:32.022Z,1010.193
2023-05-19T00:50:02.009Z,1010.192
2023-05-19T00:50:32.210Z,1010.192
2023-05-19T00:51:02.076Z,1010.193
2023-05-19T00:51:32.008Z,1010.207
2023-05-19T00:52:02.007Z,1010.203
2023-05-19T00:52:32.008Z,1010.208
2023-05-19T00:53:02.015Z,1010.21
2023-05-19T00:53:32.007Z,1010.204
2023-05-19T00:54:02.004Z,1010.211
2023-05-19T00:54:32.008Z,1010.207
2023-05-19T00:55:02.002Z,1010.218
2023-05-19T00:55:32.011Z,1010.213
2023-05-19T00:56:02.087Z,1010.21
2023-05-19T00:56:32.009Z,1010.213
2023-05-19T00:57:02.004Z,1010.205
2023-05-19T00:57:32.006Z,1010.203
2023-05-19T00:58:02.015Z,1010.203
2023-05-19T00:58:32.012Z,1010.201
2023-05-19T00:59:02.008Z,1010.197
2023-05-19T00:59:32.014Z,1010.202
2023-05-19T01:00:02.027Z,1010.206
2023-05-19T01:00:32.264Z,1010.213
2023-05-19T01:01:02.093Z,1010.21
2023-05-19T01:01:32.107Z,1010.208
2023-05-19T01:02:02.014Z,1010.21
2023-05-19T01:02:32.052Z,1010.212
2023-05-19T01:03:02.114Z,1010.211
2023-05-19T01:03:32.176Z,1010.214
2023-05-19T01:04:02.038Z,1010.225
2023-05-19T01:04:32.015Z,1010.232
2023-05-19T01:05:02.017Z,1010.24
2023-05-19T01:05:32.009Z,1010.25
2023-05-19T01:06:02.012Z,1010.249
2023-05-19T01:06:32.010Z,1010.249
2023-05-19T01:07:02.020Z,1010.261
2023-05-19T01:07:32.016Z,1010.269
2023-05-19T01:08:02.030Z,1010.282
2023-05-19T01:08:32.008Z,1010.294
2023-05-19T01:09:02.013Z,1010.295
2023-05-19T01:09:32.017Z,1010.287
2023-05-19T01:10:02.031Z,1010.283
2023-05-19T01:10:32.289Z,1010.283
2023-05-19T01:11:02.022Z,1010.283
2023-05-19T01:11:32.022Z,1010.269
2023-05-19T01:12:02.016Z,1010.26
2023-05-19T01:12:32.011Z,1010.263
2023-05-19T01:13:02.011Z,1010.257
2023-05-19T01:13:32.018Z,1010.249
2023-05-19T01:14:02.014Z,1010.249
2023-05-19T01:14:32.010Z,1010.249
2023-05-19T01:15:02.015Z,1010.249
2023-05-19T01:15:32.016Z,1010.253
2023-05-19T01:16:02.040Z,1010.244
2023-05-19T01:16:32.126Z,1010.248
2023-05-19T01:17:02.025Z,1010.242
2023-05-19T01:17:32.041Z,1010.238
2023-05-19T01:18:02.084Z,1010.232
2023-05-19T01:18:32.016Z,1010.222
2023-05-19T01:19:02.163Z,1010.217
2023-05-19T01:19:32.019Z,1010.217
2023-05-19T01:20:02.041Z,1010.218
2023-05-19T01:20:32.140Z,1010.22
2023-05-19T01:21:02.025Z,1010.223
2023-05-19T01:21:32.070Z,1010.238
2023-05-19T01:22:02.024Z,1010.253
2023-05-19T01:22:32.022Z,1010.266
2023-05-19T01:23:02.017Z,1010.268
2023-05-19T01:23:32.025Z,1010.276
2023-05-19T01:24:02.018Z,1010.285
2023-05-19T01:24:32.012Z,1010.274
2023-05-19T01:25:02.024Z,1010.271
2023-05-19T01:25:32.013Z,1010.269
2023-05-19T01:26:02.019Z,1010.272
2023-05-19T01:26:32.013Z,1010.273
2023-05-19T01:27:02.015Z,1010.27
2023-05-19T01:27:32.018Z,1010.263
2023-05-19T01:28:02.015Z,1010.263
2023-05-19T01:28:32.015Z,1010.28
2023-05-19T01:29:02.021Z,1010.282
2023-05-19T01:29:32.016Z,1010.285
2023-05-19T01:30:02.026Z,1010.284
2023-05-19T01:30:32.225Z,1010.28
2023-05-19T01:31:02.033Z,1010.275
2023-05-19T01:31:32.045Z,1010.282
2023-05-19T01:32:02.054Z,1010.28
2023-05-19T01:32:32.081Z,1010.28
2023-05-19T01:33:02.115Z,1010.28
2023-05-19T01:33:32.042Z,1010.284
2023-05-19T01:34:02.023Z,1010.29
2023-05-19T01:34:32.027Z,1010.289
2023-05-19T01:35:02.025Z,1010.294
2023-05-19T01:35:32.031Z,1010.299
2023-05-19T01:36:02.030Z,1010.297
2023-05-19T01:36:32.018Z,1010.3
2023-05-19T01:37:02.027Z,1010.311
2023-05-19T01:37:32.027Z,1010.317
2023-05-19T01:38:02.049Z,1010.318
2023-05-19T01:38:32.032Z,1010.321
2023-05-19T01:39:02.026Z,1010.316
2023-05-19T01:39:32.021Z,1010.321
2023-05-19T01:40:02.055Z,1010.323
2023-05-19T01:40:32.223Z,1010.317
2023-05-19T01:41:02.021Z,1010.322
2023-05-19T01:41:32.023Z,1010.316
2023-05-19T01:42:02.059Z,1010.32
2023-05-19T01:42:32.020Z,1010.313
2023-05-19T01:43:02.089Z,1010.312
2023-05-19T01:43:32.039Z,1010.305
2023-05-19T01:44:02.041Z,1010.305
2023-05-19T01:44:32.029Z,1010.308
2023-05-19T01:45:02.023Z,1010.304
2023-05-19T01:45:32.055Z,1010.298
2023-05-19T01:46:02.074Z,1010.278
2023-05-19T01:46:32.171Z,1010.27
2023-05-19T01:47:02.025Z,1010.264
2023-05-19T01:47:32.057Z,1010.25
2023-05-19T01:48:02.085Z,1010.25
2023-05-19T01:48:32.026Z,1010.246
2023-05-19T01:49:02.026Z,1010.24
2023-05-19T01:49:32.024Z,1010.24
2023-05-19T01:50:02.023Z,1010.231
2023-05-19T01:50:32.269Z,1010.245
2023-05-19T01:51:02.041Z,1010.248
2023-05-19T01:51:32.034Z,1010.263
2023-05-19T01:52:02.024Z,1010.27
2023-05-19T01:52:32.032Z,1010.284
2023-05-19T01:53:02.029Z,1010.285
2023-05-19T01:53:32.030Z,1010.283
2023-05-19T01:54:02.049Z,1010.279
2023-05-19T01:54:32.034Z,1010.27
2023-05-19T01:55:02.033Z,1010.253
2023-05-19T01:55:32.045Z,1010.24
2023-05-19T01:56:02.040Z,1010.227
2023-05-19T01:56:32.028Z,1010.209
2023-05-19T01:57:02.041Z,1010.2
2023-05-19T01:57:32.026Z,1010.194
2023-05-19T01:58:02.059Z,1010.178
2023-05-19T01:58:32.024Z,1010.183
2023-05-19T01:59:02.032Z,1010.182
2023-05-19T01:59:32.034Z,1010.188
2023-05-19T02:00:02.029Z,1010.19
2023-05-19T02:00:32.295Z,1010.204
2023-05-19T02:01:02.079Z,1010.204
2023-05-19T02:01:32.131Z,1010.218
2023-05-19T02:02:02.058Z,1010.221
2023-05-19T02:02:32.076Z,1010.22
2023-05-19T02:03:02.054Z,1010.236
2023-05-19T02:03:32.040Z,1010.241
2023-05-19T02:04:02.068Z,1010.247
2023-05-19T02:04:32.049Z,1010.243
2023-05-19T02:05:02.026Z,1010.24
2023-05-19T02:05:32.034Z,1010.242
2023-05-19T02:06:02.031Z,1010.247
2023-05-19T02:06:32.034Z,1010.258
2023-05-19T02:07:02.035Z,1010.27
2023-05-19T02:07:32.045Z,1010.276
2023-05-19T02:08:02.030Z,1010.284
2023-05-19T02:08:32.032Z,1010.29
2023-05-19T02:09:02.030Z,1010.286
2023-05-19T02:09:32.029Z,1010.291
2023-05-19T02:10:02.029Z,1010.289
2023-05-19T02:10:32.224Z,1010.271
2023-05-19T02:11:02.029Z,1010.279
2023-05-19T02:11:32.030Z,1010.274
2023-05-19T02:12:02.032Z,1010.274
2023-05-19T02:12:32.031Z,1010.288
2023-05-19T02:13:02.042Z,1010.287
2023-05-19T02:13:32.034Z,1010.287
2023-05-19T02:14:02.042Z,1010.29
2023-05-19T02:14:32.041Z,1010.288
2023-05-19T02:15:02.032Z,1010.279
2023-05-19T02:15:32.058Z,1010.277
2023-05-19T02:16:02.060Z,1010.259
2023-05-19T02:16:32.033Z,1010.258
2023-05-19T02:17:02.034Z,1010.255
2023-05-19T02:17:32.123Z,1010.255
2023-05-19T02:18:02.042Z,1010.253
2023-05-19T02:18:32.033Z,1010.241
2023-05-19T02:19:02.061Z,1010.23
2023-05-19T02:19:32.029Z,1010.223
2023-05-19T02:20:02.031Z,1010.222
2023-05-19T02:20:32.237Z,1010.228
2023-05-19T02:21:02.035Z,1010.229
2023-05-19T02:21:32.031Z,1010.238
2023-05-19T02:22:02.076Z,1010.239
2023-05-19T02:22:32.036Z,1010.238
2023-05-19T02:23:02.032Z,1010.24
2023-05-19T02:23:32.030Z,1010.244
2023-05-19T02:24:02.034Z,1010.249
2023-05-19T02:24:32.048Z,1010.239
2023-05-19T02:25:02.029Z,1010.227
2023-05-19T02:25:32.029Z,1010.223
2023-05-19T02:26:02.029Z,1010.212
2023-05-19T02:26:32.043Z,1010.204
2023-05-19T02:27:02.049Z,1010.199
2023-05-19T02:27:32.030Z,1010.192
2023-05-19T02:28:02.052Z,1010.177
2023-05-19T02:28:32.031Z,1010.176
2023-05-19T02:29:02.057Z,1010.183
2023-05-19T02:29:32.028Z,1010.185
2023-05-19T02:30:02.052Z,1010.185
2023-05-19T02:30:32.530Z,1010.188
2023-05-19T02:31:02.055Z,1010.192
2023-05-19T02:31:32.058Z,1010.182
2023-05-19T02:32:02.122Z,1010.188
2023-05-19T02:32:32.073Z,1010.191
2023-05-19T02:33:02.059Z,1010.182
2023-05-19T02:33:32.031Z,1010.181
2023-05-19T02:34:02.035Z,1010.192
2023-05-19T02:34:32.031Z,1010.202
2023-05-19T02:35:02.058Z,1010.208
2023-05-19T02:35:32.029Z,1010.223
2023-05-19T02:36:02.031Z,1010.232
2023-05-19T02:36:32.030Z,1010.237
2023-05-19T02:37:02.039Z,1010.236
2023-05-19T02:37:32.038Z,1010.232
2023-05-19T02:38:02.037Z,1010.224
2023-05-19T02:38:32.030Z,1010.221
2023-05-19T02:39:02.036Z,1010.221
2023-05-19T02:39:32.038Z,1010.207
2023-05-19T02:40:02.032Z,1010.217
2023-05-19T02:40:32.199Z,1010.216
2023-05-19T02:41:02.052Z,1010.205
2023-05-19T02:41:32.037Z,1010.211
2023-05-19T02:42:02.031Z,1010.204
2023-05-19T02:42:32.037Z,1010.203
2023-05-19T02:43:02.030Z,1010.21
2023-05-19T02:43:32.038Z,1010.215
2023-05-19T02:44:02.045Z,1010.209
2023-05-19T02:44:32.036Z,1010.207
2023-05-19T02:45:02.055Z,1010.207
2023-05-19T02:45:32.035Z,1010.209
2023-05-19T02:46:02.048Z,1010.209
2023-05-19T02:46:32.136Z,1010.216
2023-05-19T02:47:02.047Z,1010.215
2023-05-19T02:47:32.836Z,1010.217
2023-05-19T02:48:02.070Z,1010.222
2023-05-19T02:48:32.033Z,1010.224
2023-05-19T02:49:02.034Z,1010.235
2023-05-19T02:49:32.045Z,1010.243
2023-05-19T02:50:02.080Z,1010.24
2023-05-19T02:50:32.240Z,1010.246
2023-05-19T02:51:02.036Z,1010.26
2023-05-19T02:51:32.042Z,1010.27
2023-05-19T02:52:02.035Z,1010.28
2023-05-19T02:52:32.041Z,1010.284
2023-05-19T02:53:02.038Z,1010.295
2023-05-19T02:53:32.038Z,1010.302
2023-05-19T02:54:02.044Z,1010.305
2023-05-19T02:54:32.042Z,1010.306
2023-05-19T02:55:02.037Z,1010.308
2023-05-19T02:55:32.051Z,1010.295
2023-05-19T02:56:02.038Z,1010.296
2023-05-19T02:56:32.038Z,1010.293
2023-05-19T02:57:02.036Z,1010.287
2023-05-19T02:57:32.038Z,1010.277
2023-05-19T02:58:02.041Z,1010.276
2023-05-19T02:58:32.046Z,1010.279
2023-05-19T02:59:02.044Z,1010.276
2023-05-19T02:59:32.037Z,1010.28
2023-05-19T03:00:02.046Z,1010.274
2023-05-19T03:00:32.271Z,1010.27
2023-05-19T03:01:02.036Z,1010.266
2023-05-19T03:01:32.062Z,1010.268
2023-05-19T03:02:02.163Z,1010.266
2023-05-19T03:02:32.164Z,1010.269
2023-05-19T03:03:02.096Z,1010.269
2023-05-19T03:03:32.139Z,1010.269
2023-05-19T03:04:02.398Z,1010.267
2023-05-19T03:04:32.045Z,1010.277
2023-05-19T03:05:02.039Z,1010.285
2023-05-19T03:05:32.041Z,1010.284
2023-05-19T03:06:02.040Z,1010.293
2023-05-19T03:06:32.044Z,1010.305
2023-05-19T03:07:02.042Z,1010.312
2023-05-19T03:07:32.042Z,1010.309
2023-05-19T03:08:02.044Z,1010.299
2023-05-19T03:08:32.055Z,1010.312
2023-05-19T03:09:02.039Z,1010.316
2023-05-19T03:09:32.047Z,1010.314
2023-05-19T03:10:02.046Z,1010.303
2023-05-19T03:10:32.163Z,1010.308
2023-05-19T03:11:02.042Z,1010.288
2023-05-19T03:11:32.044Z,1010.275
2023-05-19T03:12:02.047Z,1010.275
2023-05-19T03:12:32.042Z,1010.266
2023-05-19T03:13:02.046Z,1010.27
2023-05-19T03:13:32.039Z,1010.262
2023-05-19T03:14:02.044Z,1010.254
2023-05-19T03:14:32.045Z,1010.241
2023-05-19T03:15:02.057Z,1010.245
2023-05-19T03:15:32.039Z,1010.25
2023-05-19T03:16:02.129Z,1010.259
2023-05-19T03:16:32.121Z,1010.251
2023-05-19T03:17:02.098Z,1010.256
2023-05-19T03:17:32.126Z,1010.261
2023-05-19T03:18:02.084Z,1010.267
2023-05-19T03:18:32.042Z,1010.267
2023-05-19T03:19:02.107Z,1010.27
2023-05-19T03:19:32.061Z,1010.269
2023-05-19T03:20:02.045Z,1010.266
2023-05-19T03:20:32.209Z,1010.274
2023-05-19T03:21:02.049Z,1010.288
2023-05-19T03:21:32.227Z,1010.288
2023-05-19T03:22:02.047Z,1010.301
2023-05-19T03:22:32.046Z,1010.315
2023-05-19T03:23:02.050Z,1010.32
2023-05-19T03:23:32.048Z,1010.332
2023-05-19T03:24:02.071Z,1010.328
2023-05-19T03:24:32.054Z,1010.344
2023-05-19T03:25:02.046Z,1010.336
2023-05-19T03:25:32.051Z,1010.334
2023-05-19T03:26:02.052Z,1010.332
2023-05-19T03:26:32.052Z,1010.332
2023-05-19T03:27:02.048Z,1010.326
2023-05-19T03:27:32.058Z,1010.319
2023-05-19T03:28:02.064Z,1010.3
2023-05-19T03:28:32.047Z,1010.299
2023-05-19T03:29:02.058Z,1010.293
2023-05-19T03:29:32.050Z,1010.293
2023-05-19T03:30:02.733Z,1010.297
2023-05-19T03:30:32.309Z,1010.295
2023-05-19T03:31:02.060Z,1010.281
2023-05-19T03:31:32.052Z,1010.248
2023-05-19T03:32:02.124Z,1010.223
2023-05-19T03:32:32.135Z,1010.189
2023-05-19T03:33:02.153Z,1010.161
2023-05-19T03:33:32.103Z,1010.142
2023-05-19T03:34:02.060Z,1010.114
2023-05-19T03:34:32.050Z,1010.089
2023-05-19T03:35:02.081Z,1010.084
2023-05-19T03:35:32.052Z,1010.089
2023-05-19T03:36:02.064Z,1010.087
2023-05-19T03:36:32.164Z,1010.1
2023-05-19T03:37:02.059Z,1010.093
2023-05-19T03:37:32.050Z,1010.089
2023-05-19T03:38:02.063Z,1010.089
2023-05-19T03:38:32.062Z,1010.081
2023-05-19T03:39:02.052Z,1010.07
2023-05-19T03:39:32.056Z,1010.064
2023-05-19T03:40:02.076Z,1010.061
2023-05-19T03:40:32.267Z,1010.06
2023-05-19T03:41:02.058Z,1010.063
2023-05-19T03:41:32.070Z,1010.063
2023-05-19T03:42:02.062Z,1010.048
2023-05-19T03:42:32.052Z,1010.036
2023-05-19T03:43:02.054Z,1010.026
2023-05-19T03:43:32.053Z,1010.022
2023-05-19T03:44:02.056Z,1010.022
2023-05-19T03:44:32.053Z,1010.029
2023-05-19T03:45:02.058Z,1010.054
2023-05-19T03:45:32.095Z,1010.068
2023-05-19T03:46:02.108Z,1010.08
2023-05-19T03:46:32.058Z,1010.069
2023-05-19T03:47:02.067Z,1010.064
2023-05-19T03:47:32.087Z,1010.053
2023-05-19T03:48:02.116Z,1010.061
2023-05-19T03:48:32.078Z,1010.041
2023-05-19T03:49:02.069Z,1010.039
2023-05-19T03:49:32.056Z,1010.038
2023-05-19T03:50:02.059Z,1010.029
2023-05-19T03:50:32.217Z,1010.032
2023-05-19T03:51:02.060Z,1010.032
2023-05-19T03:51:32.060Z,1010.039
2023-05-19T03:52:02.064Z,1010.061
2023-05-19T03:52:32.059Z,1010.075
2023-05-19T03:53:02.066Z,1010.087
2023-05-19T03:53:32.063Z,1010.092
2023-05-19T03:54:02.066Z,1010.11
2023-05-19T03:54:32.075Z,1010.123
2023-05-19T03:55:02.066Z,1010.136
2023-05-19T03:55:32.068Z,1010.138
2023-05-19T03:56:02.063Z,1010.15
2023-05-19T03:56:32.066Z,1010.143
2023-05-19T03:57:02.083Z,1010.131
2023-05-19T03:57:32.070Z,1010.114
2023-05-19T03:58:02.059Z,1010.104
2023-05-19T03:58:32.056Z,1010.094
2023-05-19T03:59:02.062Z,1010.08
2023-05-19T03:59:32.075Z,1010.062
2023-05-19T04:00:02.071Z,1010.069
2023-05-19T04:00:32.293Z,1010.076
2023-05-19T04:01:02.060Z,1010.083
2023-05-19T04:01:32.068Z,1010.075
2023-05-19T04:02:02.089Z,1010.078
2023-05-19T04:02:32.182Z,1010.086
2023-05-19T04:03:02.170Z,1010.099
2023-05-19T04:03:32.188Z,1010.106
2023-05-19T04:04:02.125Z,1010.117
2023-05-19T04:04:32.102Z,1010.096
2023-05-19T04:05:02.058Z,1010.088
2023-05-19T04:05:32.058Z,1010.081
2023-05-19T04:06:02.074Z,1010.1
2023-05-19T04:06:32.063Z,1010.115
2023-05-19T04:07:02.059Z,1010.103
2023-05-19T04:07:32.076Z,1010.081
2023-05-19T04:08:02.097Z,1010.09
2023-05-19T04:08:32.079Z,1010.075
2023-05-19T04:09:02.067Z,1010.073
2023-05-19T04:09:32.087Z,1010.068
2023-05-19T04:10:02.075Z,1010.062
2023-05-19T04:10:32.339Z,1010.063
2023-05-19T04:11:02.095Z,1010.073
2023-05-19T04:11:32.063Z,1010.08
2023-05-19T04:12:02.076Z,1010.08
2023-05-19T04:12:32.071Z,1010.083
2023-05-19T04:13:02.125Z,1010.075
2023-05-19T04:13:32.060Z,1010.065
2023-05-19T04:14:02.074Z,1010.045
2023-05-19T04:14:32.091Z,1010.036
2023-05-19T04:15:02.075Z,1010.013
2023-05-19T04:15:32.096Z,1009.987
2023-05-19T04:16:02.120Z,1009.993
2023-05-19T04:16:32.104Z,1010.004
2023-05-19T04:17:02.069Z,1010.004
2023-05-19T04:17:32.122Z,1010.008
2023-05-19T04:18:02.140Z,1010.01
2023-05-19T04:18:32.065Z,1010.007
2023-05-19T04:19:02.095Z,1010.003
2023-05-19T04:19:32.130Z,1010.006
2023-05-19T04:20:02.088Z,1009.997
2023-05-19T04:20:32.186Z,1009.982
2023-05-19T04:21:02.064Z,1010.005
2023-05-19T04:21:32.067Z,1010.021
2023-05-19T04:22:02.067Z,1010.025
2023-05-19T04:22:32.066Z,1010.032
2023-05-19T04:23:02.066Z,1010.037
2023-05-19T04:23:32.065Z,1010.041
2023-05-19T04:24:02.069Z,1010.03
2023-05-19T04:24:32.062Z,1010.03
2023-05-19T04:25:02.072Z,1010.027
2023-05-19T04:25:32.068Z,1010.002
2023-05-19T04:26:02.082Z,1009.982
2023-05-19T04:26:32.072Z,1009.976
2023-05-19T04:27:02.071Z,1009.966
2023-05-19T04:27:32.135Z,1009.96
2023-05-19T04:28:02.081Z,1009.957
2023-05-19T04:28:32.083Z,1009.966
2023-05-19T04:29:02.073Z,1009.984
2023-05-19T04:29:32.066Z,1009.983
2023-05-19T04:30:02.066Z,1009.975
2023-05-19T04:30:32.394Z,1009.973
2023-05-19T04:31:02.129Z,1009.98
2023-05-19T04:31:32.140Z,1009.976
2023-05-19T04:32:02.079Z,1009.973
2023-05-19T04:32:32.089Z,1009.976
2023-05-19T04:33:02.132Z,1009.98
2023-05-19T04:33:32.071Z,1009.969
2023-05-19T04:34:02.071Z,1009.967
2023-05-19T04:34:32.068Z,1009.966
2023-05-19T04:35:02.073Z,1009.961
2023-05-19T04:35:32.069Z,1009.964
2023-05-19T04:36:02.075Z,1009.968
2023-05-19T04:36:32.077Z,1009.985
2023-05-19T04:37:02.085Z,1009.99
2023-05-19T04:37:32.071Z,1010.002
2023-05-19T04:38:02.079Z,1010.003
2023-05-19T04:38:32.075Z,1010.007
2023-05-19T04:39:02.077Z,1009.998
2023-05-19T04:39:32.090Z,1009.989
2023-05-19T04:40:02.075Z,1009.969
2023-05-19T04:40:32.388Z,1009.953
2023-05-19T04:41:02.098Z,1009.945
2023-05-19T04:41:32.085Z,1009.931
2023-05-19T04:42:02.088Z,1009.921
2023-05-19T04:42:32.080Z,1009.911
2023-05-19T04:43:02.235Z,1009.909
2023-05-19T04:43:32.081Z,1009.918
2023-05-19T04:44:02.075Z,1009.917
2023-05-19T04:44:32.077Z,1009.898
2023-05-19T04:45:02.078Z,1009.882
2023-05-19T04:45:32.088Z,1009.886
2023-05-19T04:46:02.111Z,1009.88
2023-05-19T04:46:32.108Z,1009.876
2023-05-19T04:47:02.140Z,1009.869
2023-05-19T04:47:32.109Z,1009.855
2023-05-19T04:48:02.194Z,1009.863
2023-05-19T04:48:32.077Z,1009.864
2023-05-19T04:49:02.082Z,1009.853
2023-05-19T04:49:32.075Z,1009.874
2023-05-19T04:50:02.084Z,1009.878
2023-05-19T04:50:32.211Z,1009.891
2023-05-19T04:51:02.085Z,1009.912
2023-05-19T04:51:32.088Z,1009.919
2023-05-19T04:52:02.088Z,1009.932
2023-05-19T04:52:32.086Z,1009.935
2023-05-19T04:53:02.084Z,1009.936
2023-05-19T04:53:32.162Z,1009.933
2023-05-19T04:54:02.082Z,1009.931
2023-05-19T04:54:32.080Z,1009.926
2023-05-19T04:55:02.077Z,1009.92
2023-05-19T04:55:32.082Z,1009.921
2023-05-19T04:56:02.084Z,1009.924
2023-05-19T04:56:32.084Z,1009.948
2023-05-19T04:57:02.082Z,1009.965
2023-05-19T04:57:32.088Z,1009.97
2023-05-19T04:58:02.091Z,1009.965
2023-05-19T04:58:32.085Z,1009.981
2023-05-19T04:59:02.087Z,1009.991
2023-05-19T04:59:32.088Z,1009.987
2023-05-19T05:00:02.098Z,1009.986
2023-05-19T05:00:32.227Z,1009.962
2023-05-19T05:01:02.091Z,1009.946
2023-05-19T05:01:32.088Z,1009.927
2023-05-19T05:02:02.160Z,1009.917
2023-05-19T05:02:32.175Z,1009.905
2023-05-19T05:03:02.142Z,1009.894
2023-05-19T05:03:32.211Z,1009.879
2023-05-19T05:04:02.248Z,1009.877
2023-05-19T05:04:32.085Z,1009.879
2023-05-19T05:05:02.080Z,1009.882
2023-05-19T05:05:32.078Z,1009.879
2023-05-19T05:06:02.079Z,1009.867
2023-05-19T05:06:32.084Z,1009.855
2023-05-19T05:07:02.080Z,1009.873
2023-05-19T05:07:32.671Z,1009.894
2023-05-19T05:08:02.083Z,1009.914
2023-05-19T05:08:32.079Z,1009.93
2023-05-19T05:09:02.081Z,1009.947
2023-05-19T05:09:32.086Z,1009.941
2023-05-19T05:10:02.087Z,1009.93
2023-05-19T05:10:32.290Z,1009.901
2023-05-19T05:11:02.080Z,1009.89
2023-05-19T05:11:32.083Z,1009.868
2023-05-19T05:12:02.091Z,1009.847
2023-05-19T05:12:32.096Z,1009.825
2023-05-19T05:13:02.080Z,1009.805
2023-05-19T05:13:32.087Z,1009.795
2023-05-19T05:14:02.092Z,1009.776
2023-05-19T05:14:32.083Z,1009.754
2023-05-19T05:15:02.143Z,1009.73
2023-05-19T05:15:32.084Z,1009.711
2023-05-19T05:16:02.146Z,1009.694
2023-05-19T05:16:32.180Z,1009.682
2023-05-19T05:17:02.088Z,1009.671
2023-05-19T05:17:32.148Z,1009.662
2023-05-19T05:18:02.151Z,1009.663
2023-05-19T05:18:32.093Z,1009.661
2023-05-19T05:19:02.108Z,1009.666
2023-05-19T05:19:32.151Z,1009.675
2023-05-19T05:20:02.094Z,1009.695
2023-05-19T05:20:32.297Z,1009.708
2023-05-19T05:21:02.085Z,1009.712
2023-05-19T05:21:32.088Z,1009.721
2023-05-19T05:22:02.094Z,1009.747
2023-05-19T05:22:32.087Z,1009.754
2023-05-19T05:23:02.097Z,1009.76
2023-05-19T05:23:32.084Z,1009.754
2023-05-19T05:24:02.091Z,1009.744
2023-05-19T05:24:32.091Z,1009.748
2023-05-19T05:25:02.086Z,1009.745
2023-05-19T05:25:32.370Z,1009.745
2023-05-19T05:26:02.086Z,1009.745
2023-05-19T05:26:32.088Z,1009.767
2023-05-19T05:27:02.094Z,1009.777
2023-05-19T05:27:32.088Z,1009.778
2023-05-19T05:28:02.103Z,1009.775
2023-05-19T05:28:32.089Z,1009.77
2023-05-19T05:29:02.082Z,1009.766
2023-05-19T05:29:32.089Z,1009.767
2023-05-19T05:30:02.087Z,1009.76
2023-05-19T05:30:32.093Z,1009.757
2023-05-19T05:31:02.093Z,1009.752
2023-05-19T05:31:32.090Z,1009.752
2023-05-19T05:32:02.124Z,1009.747
2023-05-19T05:32:32.180Z,1009.749
2023-05-19T05:33:02.207Z,1009.761
2023-05-19T05:33:32.157Z,1009.776
2023-05-19T05:34:02.104Z,1009.785
2023-05-19T05:34:32.088Z,1009.799
2023-05-19T05:35:02.099Z,1009.805
2023-05-19T05:35:32.259Z,1009.788
2023-05-19T05:36:02.093Z,1009.795
2023-05-19T05:36:32.089Z,1009.793
2023-05-19T05:37:02.106Z,1009.807
2023-05-19T05:37:32.090Z,1009.813
2023-05-19T05:38:02.091Z,1009.797
2023-05-19T05:38:32.096Z,1009.789
2023-05-19T05:39:02.091Z,1009.785
2023-05-19T05:39:32.102Z,1009.773
2023-05-19T05:40:02.115Z,1009.766
2023-05-19T05:40:32.097Z,1009.748
2023-05-19T05:41:02.103Z,1009.743
2023-05-19T05:41:32.092Z,1009.727
2023-05-19T05:42:02.092Z,1009.72
2023-05-19T05:42:32.096Z,1009.708
2023-05-19T05:43:02.097Z,1009.698
2023-05-19T05:43:32.092Z,1009.691
2023-05-19T05:44:02.101Z,1009.675
2023-05-19T05:44:32.106Z,1009.668
2023-05-19T05:45:02.091Z,1009.667
2023-05-19T05:45:32.269Z,1009.67
2023-05-19T05:46:02.117Z,1009.676
2023-05-19T05:46:32.172Z,1009.686
2023-05-19T05:47:02.101Z,1009.689
2023-05-19T05:47:32.152Z,1009.7
2023-05-19T05:48:02.217Z,1009.718
2023-05-19T05:48:32.111Z,1009.723
2023-05-19T05:49:02.106Z,1009.728
2023-05-19T05:49:32.094Z,1009.734
2023-05-19T05:50:02.093Z,1009.739
2023-05-19T05:50:32.105Z,1009.744
2023-05-19T05:51:02.113Z,1009.745
2023-05-19T05:51:32.098Z,1009.749
2023-05-19T05:52:06.260Z,1009.758
2023-05-19T05:52:33.274Z,1009.765
2023-05-19T05:53:02.094Z,1009.761
2023-05-19T05:53:32.119Z,1009.77